Time;durP1;ratioP1;P1;durP2;ratioP2;P2;SDS_P1;SDS_P2;PMS_P1;PMS_P2;Temp;Humidity;BMP_temperature;BMP_pressure;BME280_temperature;BME280_humidity;BME280_pressure;Samples;Min_cycle;Max_cycle;Signal;HPM_P1;HPM_P2
2022/08/14 00:00:44;;;;;;;4.60;2.27;;;21.80;68.80;;;;;;4979355;28;20205;-70
2022/08/14 00:03:27;;;;;;;1.90;1.60;;;21.80;68.70;;;;;;4956770;28;20276;-72
2022/08/14 00:05:57;;;;;;;2.70;2.00;;;21.80;68.80;;;;;;4958801;28;20215;-70
2022/08/14 00:08:29;;;;;;;2.23;1.73;;;21.80;68.80;;;;;;4975994;28;20241;-72
2022/08/14 00:11:11;;;;;;;4.60;2.27;;;21.70;69.00;;;;;;4977099;28;20205;-71
2022/08/14 00:13:44;;;;;;;4.10;2.13;;;21.70;69.20;;;;;;4976315;28;20233;-70
2022/08/14 00:16:22;;;;;;;2.57;2.00;;;21.70;69.60;;;;;;4978444;28;20201;-73
2022/08/14 00:19:10;;;;;;;3.90;2.00;;;21.60;69.60;;;;;;4993054;28;20304;-72
2022/08/14 00:21:51;;;;;;;5.97;2.10;;;21.60;69.80;;;;;;4973540;28;20220;-70
2022/08/14 00:24:20;;;;;;;6.30;2.60;;;21.60;69.90;;;;;;4975838;28;20229;-70
2022/08/14 00:26:58;;;;;;;2.77;1.97;;;21.60;70.10;;;;;;4977707;28;20216;-73
2022/08/14 00:29:30;;;;;;;4.03;1.97;;;21.50;70.10;;;;;;4970084;28;20220;-71
2022/08/14 00:32:07;;;;;;;3.87;1.70;;;21.50;69.60;;;;;;4971847;28;20193;-71
2022/08/14 00:34:55;;;;;;;3.37;2.00;;;21.50;68.80;;;;;;4967430;28;20213;-72
2022/08/14 00:37:23;;;;;;;3.80;2.00;;;21.50;68.30;;;;;;4955309;28;20212;-72
2022/08/14 00:39:52;;;;;;;1.83;1.73;;;21.40;67.90;;;;;;4954006;28;20234;-73
2022/08/14 00:42:23;;;;;;;1.80;1.70;;;21.40;67.60;;;;;;4972290;28;20654;-72
2022/08/14 00:45:12;;;;;;;2.93;2.10;;;21.40;67.60;;;;;;4975036;28;20205;-71
2022/08/14 00:47:46;;;;;;;3.67;2.20;;;21.30;67.60;;;;;;4971445;28;20201;-72
2022/08/14 00:50:17;;;;;;;3.33;1.73;;;21.30;67.90;;;;;;4973020;28;20201;-70
2022/08/14 00:52:51;;;;;;;2.03;1.90;;;21.30;68.30;;;;;;4952585;28;20210;-72
2022/08/14 00:55:20;;;;;;;2.20;1.90;;;21.20;68.60;;;;;;4952552;28;21150;-70
2022/08/14 00:58:29;;;;;;;3.50;2.10;;;21.20;68.90;;;;;;4991319;28;20288;-73
2022/08/14 01:00:38;;;;;;;2.50;2.30;;;21.20;68.70;;;;;;4963361;28;20215;-72
2022/08/14 01:03:19;;;;;;;2.50;2.30;;;21.20;68.30;;;;;;4986062;28;20215;-73
2022/08/14 01:06:16;;;;;;;3.97;2.47;;;21.20;68.40;;;;;;4965847;28;20189;-73
2022/08/14 01:08:44;;;;;;;4.73;2.50;;;21.20;68.30;;;;;;4987775;28;20213;-70
2022/08/14 01:11:23;;;;;;;5.53;2.10;;;21.20;68.10;;;;;;4973843;28;20200;-73
2022/08/14 01:13:51;;;;;;;5.70;2.10;;;21.20;68.40;;;;;;4984727;28;20303;-71
2022/08/14 01:16:29;;;;;;;2.47;2.27;;;21.10;68.60;;;;;;4986247;28;20255;-71
2022/08/14 01:21:51;;;;;;;2.27;1.90;;;21.20;68.70;;;;;;4976180;28;20670;-72
2022/08/14 01:24:21;;;;;;;11.33;2.50;;;21.10;68.60;;;;;;4983759;28;20240;-73
2022/08/14 01:26:58;;;;;;;2.13;1.93;;;21.10;68.80;;;;;;4954078;28;20216;-73
2022/08/14 01:29:29;;;;;;;1.90;1.80;;;21.10;68.70;;;;;;4972180;28;20543;-70
2022/08/14 01:32:18;;;;;;;2.67;2.47;;;21.10;68.60;;;;;;4974838;28;20263;-72
2022/08/14 01:34:52;;;;;;;2.83;1.80;;;21.10;68.80;;;;;;4971391;28;20711;-71
2022/08/14 01:37:45;;;;;;;3.13;2.50;;;21.10;68.40;;;;;;4968093;28;20258;-70
2022/08/14 01:40:28;;;;;;;3.93;2.20;;;21.10;68.30;;;;;;4963175;28;20283;-70
2022/08/14 01:43:16;;;;;;;6.67;2.37;;;21.10;68.10;;;;;;5092725;23;20294;-72
2022/08/14 01:45:53;;;;;;;3.63;2.10;;;21.10;68.10;;;;;;4995482;28;20639;-72
2022/08/14 01:48:33;;;;;;;3.13;2.50;;;21.10;67.80;;;;;;4976324;28;20218;-70
2022/08/14 01:51:07;;;;;;;5.20;2.10;;;21.10;67.60;;;;;;4978594;28;20490;-70
2022/08/14 01:53:51;;;;;;;2.40;2.20;;;21.10;67.50;;;;;;4976639;28;20733;-70
2022/08/14 01:56:38;;;;;;;3.17;2.63;;;21.10;67.40;;;;;;4993358;28;20235;-71
2022/08/14 01:59:31;;;;;;;3.20;2.53;;;21.10;67.00;;;;;;4991638;28;20250;-73
2022/08/14 02:02:16;;;;;;;2.83;2.50;;;21.10;67.00;;;;;;4930548;28;20216;-72
2022/08/14 02:04:47;;;;;;;6.70;2.83;;;21.10;66.90;;;;;;5006859;28;20230;-71
2022/08/14 02:07:24;;;;;;;2.70;2.50;;;21.00;66.80;;;;;;4979742;28;20250;-71
2022/08/14 02:10:13;;;;;;;5.83;2.70;;;21.00;67.00;;;;;;4995328;28;20215;-70
2022/08/14 02:12:45;;;;;;;2.60;2.40;;;21.00;67.10;;;;;;4993374;28;20219;-71
2022/08/14 02:15:20;;;;;;;3.03;2.73;;;21.00;67.20;;;;;;5010813;28;20207;-72
2022/08/14 02:17:50;;;;;;;5.00;2.30;;;21.00;67.40;;;;;;4975636;28;20212;-71
2022/08/14 02:20:19;;;;;;;2.50;2.30;;;21.00;67.60;;;;;;4995137;28;20201;-73
2022/08/14 02:22:52;;;;;;;5.90;2.43;;;21.00;67.90;;;;;;5007314;28;20275;-71
2022/08/14 02:25:22;;;;;;;2.60;2.40;;;20.90;68.00;;;;;;4968576;28;20237;-70
2022/08/14 02:27:57;;;;;;;2.83;2.27;;;20.80;68.20;;;;;;4994225;28;20621;-73
2022/08/14 02:30:46;;;;;;;3.83;2.67;;;20.90;68.50;;;;;;5007070;28;20510;-70
2022/08/14 02:33:24;;;;;;;5.57;2.60;;;20.80;68.80;;;;;;4980790;28;20268;-73
2022/08/14 02:35:55;;;;;;;2.67;2.47;;;20.70;68.90;;;;;;5006999;28;20637;-71
2022/08/14 02:38:48;;;;;;;4.50;2.50;;;20.70;69.00;;;;;;4992580;28;20526;-70
2022/08/14 02:41:16;;;;;;;2.27;2.07;;;20.60;69.40;;;;;;4973697;28;20211;-70
2022/08/14 02:43:46;;;;;;;5.00;3.17;;;20.50;69.50;;;;;;4978071;28;20228;-71
2022/08/14 02:46:17;;;;;;;3.97;2.60;;;20.50;69.50;;;;;;4996325;28;20200;-73
2022/08/14 02:48:53;;;;;;;4.43;3.03;;;20.40;69.40;;;;;;4993343;28;20215;-71
2022/08/14 02:51:36;;;;;;;4.93;2.50;;;20.40;69.70;;;;;;4992898;28;20207;-73
2022/08/14 02:54:09;;;;;;;3.40;2.40;;;20.30;70.20;;;;;;4974851;28;20204;-71
2022/08/14 02:56:46;;;;;;;2.03;1.80;;;20.30;71.00;;;;;;4998703;28;20224;-73
2022/08/14 02:59:38;;;;;;;3.43;2.50;;;20.20;71.00;;;;;;4982059;28;20212;-71
2022/08/14 03:02:11;;;;;;;3.27;2.97;;;20.20;70.70;;;;;;4975401;28;20293;-71
2022/08/14 03:05:00;;;;;;;4.10;2.33;;;20.10;70.80;;;;;;4983143;28;20662;-73
2022/08/14 03:07:28;;;;;;;2.70;2.50;;;20.10;71.20;;;;;;4996919;28;20203;-70
2022/08/14 03:09:56;;;;;;;3.57;2.70;;;20.00;71.30;;;;;;4969042;28;20553;-70
2022/08/14 03:12:45;;;;;;;3.17;2.83;;;20.00;71.40;;;;;;4983856;28;20675;-72
2022/08/14 03:15:17;;;;;;;4.53;2.40;;;19.90;71.50;;;;;;4995383;28;20203;-71
2022/08/14 03:17:50;;;;;;;3.00;2.80;;;19.90;71.80;;;;;;4979348;28;20644;-72
2022/08/14 03:20:27;;;;;;;2.57;2.37;;;19.90;71.80;;;;;;4996721;28;20206;-72
2022/08/14 03:23:01;;;;;;;4.73;2.83;;;19.90;71.50;;;;;;4981102;28;20215;-72
2022/08/14 03:25:32;;;;;;;4.60;2.97;;;19.80;71.40;;;;;;4992260;28;20229;-70
2022/08/14 03:28:08;;;;;;;6.53;2.73;;;19.70;71.40;;;;;;4975865;28;20294;-71
2022/08/14 03:30:59;;;;;;;3.23;2.93;;;19.70;71.60;;;;;;4979661;28;20215;-70
2022/08/14 03:33:27;;;;;;;3.13;2.50;;;19.60;71.60;;;;;;4976075;28;20538;-70
2022/08/14 03:36:14;;;;;;;2.63;2.40;;;19.60;71.60;;;;;;4993557;28;20207;-70
2022/08/14 03:39:04;;;;;;;5.33;2.50;;;19.60;71.60;;;;;;4994945;28;20637;-70
2022/08/14 03:41:42;;;;;;;4.23;2.73;;;19.50;71.30;;;;;;4993714;28;20334;-70
2022/08/14 03:44:09;;;;;;;7.13;2.50;;;19.50;71.10;;;;;;4993665;28;20226;-70
2022/08/14 03:46:56;;;;;;;2.63;2.43;;;19.50;71.30;;;;;;4992244;28;20549;-70
2022/08/14 03:49:24;;;;;;;3.50;2.20;;;19.50;71.40;;;;;;4969922;28;20556;-70
2022/08/14 03:51:56;;;;;;;3.40;2.10;;;19.60;71.40;;;;;;4993280;28;20307;-70
2022/08/14 03:54:27;;;;;;;3.07;2.73;;;19.60;71.40;;;;;;4995282;28;20287;-70
2022/08/14 03:56:59;;;;;;;4.13;2.47;;;19.60;71.10;;;;;;4991274;28;20246;-69
2022/08/14 03:59:32;;;;;;;4.33;2.30;;;19.60;71.00;;;;;;4976435;28;20202;-69
2022/08/14 04:02:02;;;;;;;3.43;2.80;;;19.60;71.50;;;;;;4993244;28;20550;-69
2022/08/14 04:04:50;;;;;;;2.43;2.23;;;19.70;71.00;;;;;;4994398;28;20228;-69
2022/08/14 04:07:17;;;;;;;4.03;2.87;;;19.60;71.10;;;;;;4994931;28;20282;-69
2022/08/14 04:09:44;;;;;;;3.17;2.57;;;19.60;71.30;;;;;;4990421;28;20211;-69
2022/08/14 04:12:11;;;;;;;5.10;2.33;;;19.60;71.50;;;;;;4976888;28;20199;-69
2022/08/14 04:14:39;;;;;;;2.80;2.30;;;19.60;71.80;;;;;;4994021;28;20202;-69
2022/08/14 04:17:08;;;;;;;3.47;2.60;;;19.60;71.80;;;;;;4993326;28;20210;-69
2022/08/14 04:19:36;;;;;;;2.50;2.30;;;19.60;72.10;;;;;;4992609;28;20207;-69
2022/08/14 04:22:05;;;;;;;2.97;2.47;;;19.60;72.10;;;;;;5010037;28;20208;-69
2022/08/14 04:24:32;;;;;;;5.97;2.67;;;19.60;72.10;;;;;;4993697;28;20267;-69
2022/08/14 04:27:12;;;;;;;3.07;2.70;;;19.60;72.30;;;;;;4963413;28;20223;-69
2022/08/14 04:29:43;;;;;;;6.70;2.57;;;19.60;72.30;;;;;;5008942;28;20548;-70
2022/08/14 04:32:11;;;;;;;4.87;2.90;;;19.60;72.20;;;;;;4993140;28;20293;-70
2022/08/14 04:35:00;;;;;;;3.00;2.70;;;19.60;72.20;;;;;;4964675;28;20207;-70
2022/08/14 04:46:13;;;;;;;5.70;2.83;;;19.70;71.60;;;;;;4989680;28;20238;-69
2022/08/14 04:49:03;;;;;;;6.17;2.90;;;19.80;71.70;;;;;;4994530;28;20219;-69
2022/08/14 04:51:34;;;;;;;2.53;2.33;;;19.80;72.00;;;;;;4994153;28;20202;-69
2022/08/14 04:54:25;;;;;;;2.73;2.50;;;19.90;72.40;;;;;;4977345;28;20569;-69
2022/08/14 04:56:54;;;;;;;2.77;2.57;;;20.00;72.60;;;;;;4994809;28;20212;-69
2022/08/14 04:59:23;;;;;;;2.97;2.50;;;20.00;72.80;;;;;;4973521;28;20852;-69
2022/08/14 05:01:52;;;;;;;2.83;2.43;;;20.10;72.70;;;;;;4972276;28;20222;-69
2022/08/14 05:04:23;;;;;;;5.13;2.77;;;20.20;72.50;;;;;;5008508;28;20529;-70
2022/08/14 05:06:53;;;;;;;4.83;3.37;;;20.20;72.50;;;;;;4992829;28;20207;-70
2022/08/14 05:09:24;;;;;;;2.63;2.43;;;20.30;72.90;;;;;;4961722;28;20211;-69
2022/08/14 05:11:57;;;;;;;20.33;3.23;;;20.40;73.40;;;;;;4994265;28;20197;-69
2022/08/14 05:14:45;;;;;;;2.77;2.57;;;20.50;73.40;;;;;;5009034;28;20204;-70
2022/08/14 05:17:24;;;;;;;4.17;3.23;;;20.60;73.60;;;;;;4994230;28;20457;-70
2022/08/14 05:20:11;;;;;;;3.90;3.47;;;20.70;73.20;;;;;;4992898;28;20219;-70
2022/08/14 05:22:58;;;;;;;6.27;4.63;;;20.80;72.60;;;;;;4962041;28;20208;-69
2022/08/14 05:25:27;;;;;;;8.40;5.33;;;20.90;72.30;;;;;;4992266;28;20323;-69
2022/08/14 05:28:06;;;;;;;8.13;5.07;;;21.10;72.00;;;;;;5005593;28;20205;-69
2022/08/14 05:30:42;;;;;;;6.73;4.23;;;21.20;71.50;;;;;;4991394;28;20200;-69
2022/08/14 05:33:11;;;;;;;7.07;3.47;;;21.50;70.30;;;;;;4991562;28;20645;-69
2022/08/14 05:35:40;;;;;;;3.20;2.93;;;21.80;68.30;;;;;;5008358;28;20226;-69
2022/08/14 05:38:14;;;;;;;3.27;2.77;;;21.90;67.20;;;;;;4993233;28;20242;-69
2022/08/14 05:40:58;;;;;;;2.83;2.20;;;22.10;66.60;;;;;;4988447;28;20287;-69
2022/08/14 05:43:25;;;;;;;4.07;2.87;;;22.20;66.00;;;;;;4993217;28;20248;-69
2022/08/14 05:46:21;;;;;;;4.77;2.40;;;22.30;65.50;;;;;;4958957;28;20217;-70
2022/08/14 05:48:55;;;;;;;2.43;2.23;;;22.40;65.30;;;;;;5007540;28;20210;-70
2022/08/14 05:51:24;;;;;;;2.07;1.97;;;22.50;65.10;;;;;;4993484;28;20301;-70
2022/08/14 05:53:52;;;;;;;2.00;1.90;;;22.50;64.90;;;;;;4993010;28;20204;-70
2022/08/14 05:56:36;;;;;;;2.23;2.03;;;22.60;64.50;;;;;;4971751;28;20643;-70
2022/08/14 05:59:04;;;;;;;2.70;2.50;;;22.70;64.30;;;;;;4976324;28;20569;-70
2022/08/14 06:01:33;;;;;;;2.60;2.40;;;22.80;64.50;;;;;;4989823;28;20204;-70
2022/08/14 06:04:02;;;;;;;2.90;2.40;;;22.90;64.20;;;;;;4991983;28;20316;-70
2022/08/14 06:06:31;;;;;;;2.73;2.53;;;23.10;63.10;;;;;;4977299;28;20291;-70
2022/08/14 06:09:07;;;;;;;2.90;2.60;;;23.10;63.50;;;;;;4991797;28;20239;-70
2022/08/14 06:11:36;;;;;;;5.87;2.80;;;23.20;63.10;;;;;;4990724;28;20709;-70
2022/08/14 06:14:03;;;;;;;3.03;2.83;;;23.30;62.20;;;;;;5005285;28;20216;-70
2022/08/14 06:16:47;;;;;;;4.67;2.60;;;23.30;62.00;;;;;;4990272;28;20214;-70
2022/08/14 06:19:14;;;;;;;7.20;2.70;;;23.40;62.40;;;;;;4991864;28;20196;-70
2022/08/14 06:21:44;;;;;;;4.37;2.57;;;23.50;61.90;;;;;;4992711;28;20645;-69
2022/08/14 06:24:12;;;;;;;6.00;2.80;;;23.50;61.00;;;;;;4992498;28;20227;-69
2022/08/14 06:26:45;;;;;;;2.60;2.40;;;23.60;60.60;;;;;;4988921;28;20344;-69
2022/08/14 06:29:23;;;;;;;2.57;2.37;;;23.70;60.90;;;;;;5006729;28;20204;-69
2022/08/14 06:31:51;;;;;;;2.90;2.60;;;23.90;60.90;;;;;;4992399;28;20705;-69
2022/08/14 06:34:26;;;;;;;2.43;2.27;;;24.10;59.40;;;;;;4988339;28;20208;-69
2022/08/14 06:37:15;;;;;;;3.63;2.70;;;24.20;59.30;;;;;;5005189;28;20209;-70
2022/08/14 06:39:43;;;;;;;2.83;2.37;;;24.40;59.70;;;;;;4990662;28;20276;-70
2022/08/14 06:42:11;;;;;;;2.53;2.33;;;24.50;59.70;;;;;;4992972;28;20331;-69
2022/08/14 06:45:00;;;;;;;2.70;2.20;;;24.70;59.40;;;;;;4988767;28;20222;-69
2022/08/14 06:47:28;;;;;;;5.87;2.13;;;24.90;58.70;;;;;;4972426;28;20640;-69
2022/08/14 06:49:56;;;;;;;3.80;2.20;;;25.10;58.50;;;;;;4988793;28;20625;-69
2022/08/14 06:52:24;;;;;;;2.80;2.00;;;25.20;58.10;;;;;;4993765;28;20192;-69
2022/08/14 06:54:51;;;;;;;2.33;2.10;;;25.40;57.60;;;;;;4990753;28;20570;-69
2022/08/14 06:57:19;;;;;;;3.63;2.73;;;25.60;57.30;;;;;;4991966;28;20623;-70
2022/08/14 06:59:47;;;;;;;2.10;1.93;;;25.70;56.90;;;;;;5007952;28;20218;-70
2022/08/14 07:07:56;;;;;;;2.53;2.33;;;26.10;56.40;;;;;;4996656;28;20571;-70
2022/08/14 07:10:24;;;;;;;2.17;2.00;;;26.20;55.70;;;;;;5011495;28;20288;-70
2022/08/14 07:12:52;;;;;;;4.23;2.17;;;26.40;54.90;;;;;;4995675;28;20220;-70
2022/08/14 07:15:28;;;;;;;3.53;2.13;;;26.50;54.30;;;;;;4996256;28;20619;-70
2022/08/14 07:17:58;;;;;;;2.70;2.20;;;26.50;53.70;;;;;;4996380;28;20268;-70
2022/08/14 07:20:27;;;;;;;6.03;2.40;;;26.60;53.10;;;;;;4980691;28;20211;-70
2022/08/14 07:22:59;;;;;;;2.40;2.20;;;26.60;53.40;;;;;;5010837;28;20276;-70
2022/08/14 07:25:36;;;;;;;2.63;1.90;;;26.70;53.10;;;;;;4991419;28;20290;-70
2022/08/14 07:28:37;;;;;;;2.00;1.80;;;26.70;51.60;;;;;;4994875;28;20209;-70
2022/08/14 07:31:11;;;;;;;3.10;2.00;;;26.90;51.80;;;;;;4985995;28;20657;-70
2022/08/14 07:33:40;;;;;;;2.53;2.00;;;27.00;50.80;;;;;;4971331;28;20288;-70
2022/08/14 07:36:15;;;;;;;2.17;2.00;;;27.10;50.80;;;;;;4995451;28;20303;-70
2022/08/14 07:39:00;;;;;;;1.80;1.70;;;27.20;50.60;;;;;;5011051;28;20264;-70
2022/08/14 07:41:29;;;;;;;3.33;1.83;;;27.30;50.30;;;;;;5010229;28;20208;-70
2022/08/14 07:44:01;;;;;;;2.43;1.70;;;27.50;49.70;;;;;;4993883;28;20242;-71
2022/08/14 07:46:48;;;;;;;3.93;1.60;;;27.70;49.60;;;;;;4963204;28;20204;-70
2022/08/14 07:49:16;;;;;;;2.00;1.73;;;27.90;48.80;;;;;;4996057;28;20208;-70
2022/08/14 07:51:44;;;;;;;1.50;1.40;;;28.00;49.10;;;;;;4995420;28;20216;-70
2022/08/14 07:54:17;;;;;;;2.10;1.77;;;28.10;48.90;;;;;;4975224;28;20216;-70
2022/08/14 07:56:59;;;;;;;1.90;1.70;;;28.30;48.40;;;;;;5009027;28;20536;-70
2022/08/14 07:59:40;;;;;;;1.83;1.70;;;28.50;48.20;;;;;;4992925;28;20218;-70
2022/08/14 08:02:16;;;;;;;2.10;1.90;;;28.70;47.90;;;;;;4978799;28;20219;-70
2022/08/14 08:04:52;;;;;;;2.17;1.70;;;28.90;47.40;;;;;;4993311;28;20662;-70
2022/08/14 08:07:26;;;;;;;2.40;2.00;;;29.10;46.90;;;;;;4992915;28;20296;-70
2022/08/14 08:09:57;;;;;;;2.60;1.80;;;29.20;45.70;;;;;;4994926;28;20215;-70
2022/08/14 08:12:27;;;;;;;3.03;2.20;;;29.40;45.70;;;;;;5033271;23;20254;-83
2022/08/14 08:14:59;;;;;;;2.00;1.80;;;29.50;45.50;;;;;;5054113;28;20226;-79
2022/08/14 08:17:38;;;;;;;2.53;1.83;;;29.60;45.20;;;;;;5062294;28;20202;-78
2022/08/14 08:20:23;;;;;;;2.43;2.20;;;29.70;45.60;;;;;;5034994;28;20212;-78
2022/08/14 08:22:57;;;;;;;2.83;2.00;;;29.80;45.60;;;;;;5057405;28;20207;-78
2022/08/14 08:25:34;;;;;;;2.67;1.70;;;30.00;45.70;;;;;;5064307;28;20227;-78
2022/08/14 08:28:15;;;;;;;5.80;1.97;;;30.10;45.30;;;;;;5065204;28;20199;-78
2022/08/14 08:30:58;;;;;;;1.80;1.70;;;30.30;44.00;;;;;;5061396;28;20209;-79
2022/08/14 08:33:29;;;;;;;2.63;1.57;;;30.40;44.60;;;;;;5061641;28;20234;-78
2022/08/14 08:36:07;;;;;;;2.40;1.70;;;30.50;44.30;;;;;;5059921;28;20203;-79
2022/08/14 08:38:46;;;;;;;2.03;1.80;;;30.50;43.30;;;;;;5033088;28;20215;-78
2022/08/14 08:41:44;;;;;;;2.00;1.80;;;30.50;42.60;;;;;;5059688;28;20213;-79
2022/08/14 08:44:16;;;;;;;4.13;2.00;;;30.50;42.60;;;;;;5063220;28;20206;-78
2022/08/14 08:47:04;;;;;;;1.77;1.60;;;30.60;42.80;;;;;;5064235;28;20233;-78
2022/08/14 08:49:44;;;;;;;2.10;1.63;;;30.60;42.70;;;;;;5061735;28;20205;-79
2022/08/14 08:52:30;;;;;;;1.90;1.80;;;30.80;42.40;;;;;;5067697;28;20293;-78
2022/08/14 08:55:00;;;;;;;2.43;1.90;;;30.90;42.20;;;;;;5057612;28;20206;-78
2022/08/14 08:57:37;;;;;;;1.90;1.80;;;30.90;42.70;;;;;;5061125;28;20202;-80
2022/08/14 09:00:14;;;;;;;1.73;1.60;;;31.00;42.70;;;;;;5065478;28;20218;-79
2022/08/14 09:03:02;;;;;;;1.73;1.50;;;31.10;41.60;;;;;;5066057;28;20278;-80
2022/08/14 09:05:32;;;;;;;2.47;1.47;;;31.30;40.50;;;;;;5059430;28;20240;-79
2022/08/14 09:08:24;;;;;;;2.37;1.90;;;31.40;40.80;;;;;;5056396;28;20198;-78
2022/08/14 09:11:06;;;;;;;3.27;1.60;;;31.50;40.80;;;;;;5060870;28;20290;-80
2022/08/14 09:13:52;;;;;;;1.73;1.63;;;31.70;40.70;;;;;;5064597;28;20194;-78
2022/08/14 09:16:23;;;;;;;1.87;1.73;;;31.90;40.20;;;;;;5063012;28;20203;-80
2022/08/14 09:18:54;;;;;;;1.60;1.50;;;32.10;38.90;;;;;;5065707;28;20203;-78
2022/08/14 09:21:22;;;;;;;1.77;1.60;;;32.20;39.30;;;;;;5059150;28;20696;-80
2022/08/14 09:23:58;;;;;;;3.10;1.40;;;32.40;39.20;;;;;;5057483;28;20245;-79
2022/08/14 09:26:45;;;;;;;1.40;1.30;;;32.50;38.70;;;;;;5057792;28;20214;-80
2022/08/14 09:29:16;;;;;;;1.40;1.30;;;32.60;38.10;;;;;;5064360;28;20199;-78
2022/08/14 09:31:53;;;;;;;3.43;1.60;;;32.70;37.70;;;;;;5061011;28;20207;-79
2022/08/14 09:35:01;;;;;;;1.73;1.53;;;32.80;37.30;;;;;;5076408;28;20231;-80
2022/08/14 09:37:39;;;;;;;2.10;1.30;;;32.90;36.20;;;;;;5072159;28;20297;-78
2022/08/14 09:40:12;;;;;;;1.60;1.50;;;32.90;36.40;;;;;;5056206;28;20306;-79
2022/08/14 09:43:18;;;;;;;1.87;1.50;;;33.00;35.80;;;;;;5058902;28;20202;-80
2022/08/14 09:45:49;;;;;;;1.80;1.70;;;33.10;35.60;;;;;;5050518;28;20217;-78
2022/08/14 09:48:24;;;;;;;2.50;1.50;;;33.10;34.80;;;;;;5058248;28;20210;-79
2022/08/14 09:50:58;;;;;;;1.60;1.50;;;33.10;35.30;;;;;;5062298;28;20642;-80
2022/08/14 09:53:43;;;;;;;3.93;1.90;;;33.10;36.00;;;;;;5059079;28;20202;-79
2022/08/14 09:56:42;;;;;;;1.33;1.23;;;33.20;35.10;;;;;;5054078;28;20711;-78
2022/08/14 09:59:15;;;;;;;1.80;1.70;;;33.20;35.20;;;;;;5049069;28;20217;-79
2022/08/14 10:01:43;;;;;;;1.47;1.37;;;33.30;34.70;;;;;;5050064;28;20207;-78
2022/08/14 10:04:25;;;;;;;1.40;1.30;;;33.30;34.30;;;;;;5072489;28;20236;-79
2022/08/14 10:07:05;;;;;;;2.17;1.73;;;33.20;35.50;;;;;;5031924;28;20253;-79
2022/08/14 10:09:48;;;;;;;1.47;1.37;;;33.30;35.80;;;;;;5056964;28;20217;-79
2022/08/14 10:12:46;;;;;;;2.53;1.30;;;33.40;36.30;;;;;;5049022;28;20698;-79
2022/08/14 10:15:21;;;;;;;1.37;1.27;;;33.70;36.00;;;;;;5058348;28;20650;-80
2022/08/14 10:18:02;;;;;;;1.60;1.50;;;33.80;35.80;;;;;;5052433;28;20213;-77
2022/08/14 10:20:43;;;;;;;1.40;1.30;;;33.90;34.50;;;;;;5056881;28;20586;-78
2022/08/14 10:23:19;;;;;;;4.40;1.50;;;33.90;34.00;;;;;;5056794;28;20214;-79
2022/08/14 10:25:56;;;;;;;1.87;1.57;;;33.90;34.10;;;;;;5053771;28;20293;-81
2022/08/14 10:28:26;;;;;;;1.73;1.43;;;33.90;35.10;;;;;;5071063;28;20637;-79
2022/08/14 10:31:40;;;;;;;3.43;1.57;;;34.10;35.60;;;;;;5060648;28;20218;-78
2022/08/14 10:34:17;;;;;;;2.93;1.70;;;34.10;34.40;;;;;;5056988;28;20225;-80
2022/08/14 10:36:48;;;;;;;1.40;1.30;;;34.10;35.20;;;;;;5059732;28;20214;-77
2022/08/14 10:39:28;;;;;;;1.40;1.30;;;34.20;35.20;;;;;;5048037;28;20555;-78
2022/08/14 10:42:08;;;;;;;3.63;1.40;;;34.30;34.60;;;;;;5054048;28;20213;-79
2022/08/14 10:44:47;;;;;;;3.67;1.63;;;34.40;34.30;;;;;;5062415;28;20211;-78
2022/08/14 10:47:20;;;;;;;1.63;1.43;;;34.50;33.70;;;;;;5065227;28;20198;-79
2022/08/14 10:50:08;;;;;;;1.13;1.10;;;34.60;33.80;;;;;;5057028;28;20195;-79
2022/08/14 10:52:41;;;;;;;1.77;1.53;;;34.70;33.50;;;;;;5058155;28;20213;-78
2022/08/14 10:55:18;;;;;;;1.50;1.40;;;34.90;33.60;;;;;;5064602;28;20210;-81
2022/08/14 10:57:49;;;;;;;1.57;1.30;;;35.00;32.90;;;;;;5055740;28;20194;-80
2022/08/14 11:00:20;;;;;;;1.40;1.30;;;35.10;32.70;;;;;;5060887;28;20278;-80
2022/08/14 11:03:12;;;;;;;3.13;1.50;;;35.10;32.10;;;;;;5061856;28;20230;-79
2022/08/14 11:06:11;;;;;;;1.63;1.53;;;35.20;32.90;;;;;;5066174;28;20597;-78
2022/08/14 11:08:39;;;;;;;1.80;1.53;;;35.20;32.40;;;;;;5078816;28;20213;-78
2022/08/14 11:11:07;;;;;;;1.63;1.40;;;35.30;32.10;;;;;;5064520;28;20639;-79
2022/08/14 11:13:37;;;;;;;2.40;1.40;;;35.30;31.00;;;;;;5063538;28;20246;-80
2022/08/14 11:16:04;;;;;;;5.33;1.40;;;35.40;31.70;;;;;;5059819;28;20229;-79
2022/08/14 11:18:35;;;;;;;3.37;2.00;;;35.40;30.20;;;;;;5072482;28;20222;-79
2022/08/14 11:21:06;;;;;;;2.27;1.50;;;35.20;30.10;;;;;;5066590;28;20241;-78
2022/08/14 11:23:39;;;;;;;1.60;1.20;;;35.10;30.70;;;;;;5067990;28;20289;-78
2022/08/14 11:26:12;;;;;;;2.60;1.30;;;35.00;31.40;;;;;;5048390;28;20221;-79
2022/08/14 11:28:42;;;;;;;1.17;1.07;;;35.10;31.10;;;;;;5045510;28;20203;-80
2022/08/14 11:31:22;;;;;;;2.77;1.50;;;35.30;31.20;;;;;;5056702;28;20209;-79
2022/08/14 11:33:56;;;;;;;1.60;1.30;;;35.30;31.00;;;;;;5048847;28;20214;-81
2022/08/14 11:36:27;;;;;;;1.33;1.23;;;35.40;30.80;;;;;;5057957;28;20224;-79
2022/08/14 11:39:21;;;;;;;5.40;1.57;;;35.40;30.90;;;;;;5048418;28;20631;-80
2022/08/14 11:42:18;;;;;;;1.37;1.27;;;35.60;30.80;;;;;;5057748;28;20532;-78
2022/08/14 11:45:09;;;;;;;1.37;1.10;;;35.70;30.20;;;;;;5051828;28;20213;-82
2022/08/14 11:47:37;;;;;;;4.63;1.23;;;35.90;30.10;;;;;;5043600;28;21065;-79
2022/08/14 11:50:30;;;;;;;1.60;1.50;;;35.90;30.10;;;;;;5044774;28;20221;-77
2022/08/14 11:53:03;;;;;;;1.60;1.50;;;36.00;30.00;;;;;;5056129;28;20194;-78
2022/08/14 11:55:35;;;;;;;2.53;1.57;;;35.90;30.30;;;;;;5059729;28;20198;-78
2022/08/14 11:58:10;;;;;;;1.70;1.43;;;36.00;29.90;;;;;;5041077;28;20276;-78
2022/08/14 12:01:01;;;;;;;4.83;1.73;;;35.90;29.80;;;;;;5059633;28;20203;-78
2022/08/14 12:03:39;;;;;;;3.67;1.43;;;35.80;30.70;;;;;;5059132;28;20209;-78
2022/08/14 12:06:19;;;;;;;1.77;1.23;;;35.70;30.40;;;;;;5047739;28;20221;-80
2022/08/14 12:09:06;;;;;;;1.30;1.30;;;35.70;29.90;;;;;;5065817;28;20199;-78
2022/08/14 12:11:43;;;;;;;2.90;1.50;;;35.70;30.10;;;;;;5052345;28;20679;-79
2022/08/14 12:14:14;;;;;;;3.70;1.63;;;35.70;30.50;;;;;;5060912;28;20201;-79
2022/08/14 12:17:06;;;;;;;2.53;1.30;;;35.70;30.70;;;;;;5052852;28;20204;-77
2022/08/14 12:19:48;;;;;;;3.80;1.50;;;35.70;29.70;;;;;;5059118;28;20636;-78
2022/08/14 12:22:40;;;;;;;2.80;1.10;;;35.50;29.10;;;;;;5058084;28;20213;-78
2022/08/14 12:25:19;;;;;;;2.63;1.40;;;35.30;29.00;;;;;;5044110;28;20213;-79
2022/08/14 12:27:54;;;;;;;1.50;1.40;;;35.10;29.90;;;;;;5062843;28;20206;-78
2022/08/14 12:30:41;;;;;;;1.43;1.33;;;35.00;30.40;;;;;;5065972;28;20203;-78
2022/08/14 12:33:28;;;;;;;2.40;1.43;;;35.00;30.00;;;;;;5057959;28;20207;-79
2022/08/14 12:36:02;;;;;;;1.73;1.30;;;35.00;29.30;;;;;;5059501;28;20423;-78
2022/08/14 12:38:31;;;;;;;1.00;1.00;;;34.90;29.30;;;;;;5042474;28;20218;-81
2022/08/14 12:41:05;;;;;;;1.43;1.20;;;34.90;29.70;;;;;;5062614;28;20233;-77
2022/08/14 12:43:45;;;;;;;2.60;1.27;;;34.90;29.20;;;;;;5058538;28;20198;-77
2022/08/14 12:46:24;;;;;;;1.30;1.20;;;34.90;28.70;;;;;;5059007;28;20258;-78
2022/08/14 12:48:56;;;;;;;1.20;1.07;;;34.90;28.60;;;;;;5064066;28;20674;-78
2022/08/14 12:51:25;;;;;;;1.57;1.10;;;35.00;29.30;;;;;;5056483;28;20219;-78
2022/08/14 12:53:55;;;;;;;1.73;1.10;;;35.20;29.20;;;;;;5060410;28;20203;-78
2022/08/14 12:56:26;;;;;;;1.20;1.10;;;35.30;28.10;;;;;;5056377;28;20211;-79
2022/08/14 12:59:01;;;;;;;1.00;1.00;;;35.40;28.10;;;;;;5060419;28;20296;-79
2022/08/14 13:01:31;;;;;;;2.03;1.20;;;35.30;27.90;;;;;;5058889;28;20211;-78
2022/08/14 13:04:20;;;;;;;1.10;1.00;;;35.20;28.40;;;;;;5061752;28;20211;-78
2022/08/14 13:06:49;;;;;;;2.50;1.00;;;35.20;29.40;;;;;;5059247;28;20256;-79
2022/08/14 13:09:18;;;;;;;1.10;1.00;;;35.20;29.60;;;;;;5042884;28;20538;-77
2022/08/14 13:11:51;;;;;;;1.20;1.10;;;35.20;29.10;;;;;;5058158;28;20242;-79
2022/08/14 13:14:42;;;;;;;1.27;1.07;;;35.20;29.30;;;;;;5058552;28;20639;-78
2022/08/14 13:17:11;;;;;;;1.30;1.00;;;35.20;28.80;;;;;;5062523;28;20286;-78
2022/08/14 13:19:40;;;;;;;4.70;1.10;;;35.20;29.40;;;;;;5075223;28;20211;-78
2022/08/14 13:22:09;;;;;;;1.07;1.03;;;35.20;29.40;;;;;;5059042;28;20211;-79
2022/08/14 13:24:56;;;;;;;1.43;1.00;;;35.20;29.30;;;;;;5030439;28;20214;-79
2022/08/14 13:27:24;;;;;;;1.37;0.90;;;35.20;28.60;;;;;;5060092;28;20222;-80
2022/08/14 13:29:56;;;;;;;4.60;1.07;;;35.10;28.90;;;;;;5076475;28;20207;-79
2022/08/14 13:32:27;;;;;;;1.10;1.10;;;35.00;28.80;;;;;;5077910;28;20601;-79
2022/08/14 13:34:56;;;;;;;2.87;1.30;;;34.90;28.90;;;;;;5063548;28;20660;-78
2022/08/14 13:37:26;;;;;;;1.23;1.13;;;34.70;28.70;;;;;;5074592;28;20221;-79
2022/08/14 13:39:54;;;;;;;1.17;1.03;;;34.60;29.00;;;;;;5063746;28;20214;-79
2022/08/14 13:42:26;;;;;;;2.27;0.80;;;34.60;28.70;;;;;;5044880;28;20223;-78
2022/08/14 13:45:00;;;;;;;0.93;0.70;;;34.50;28.80;;;;;;5041903;28;20261;-77
2022/08/14 13:47:29;;;;;;;1.40;1.07;;;34.50;28.60;;;;;;5037638;28;20227;-78
2022/08/14 13:50:01;;;;;;;2.33;0.90;;;34.60;28.50;;;;;;5060278;28;20270;-78
2022/08/14 13:52:52;;;;;;;2.30;1.00;;;34.70;29.40;;;;;;5051111;28;20199;-78